sensor_id;sensor_type;location;lat;lon;timestamp;pressure;altitude;pressure_sealevel;temperature;humidity
68873;BME280;55907;50.806;12.882;2023-06-14T00:00:46;972.7;;;12.4;70.7
68873;BME280;55907;50.806;12.882;2023-06-14T00:03:48;972.6;;;12.3;71.0
68873;BME280;55907;50.806;12.882;2023-06-14T00:06:49;972.6;;;12.3;71.5
68873;BME280;55907;50.806;12.882;2023-06-14T00:09:51;972.6;;;12.3;70.9
68873;BME280;55907;50.806;12.882;2023-06-14T00:12:52;972.6;;;12.3;71.1
68873;BME280;55907;50.806;12.882;2023-06-14T00:15:54;972.6;;;12.2;72.1
68873;BME280;55907;50.806;12.882;2023-06-14T00:18:55;972.6;;;12.2;73.8
68873;BME280;55907;50.806;12.882;2023-06-14T00:21:57;972.7;;;12.2;73.0
68873;BME280;55907;50.806;12.882;2023-06-14T00:24:58;972.6;;;12.1;73.1
68873;BME280;55907;50.806;12.882;2023-06-14T00:31:01;972.6;;;12.1;74.3
68873;BME280;55907;50.806;12.882;2023-06-14T00:34:03;972.7;;;12.1;73.7
68873;BME280;55907;50.806;12.882;2023-06-14T00:37:04;972.6;;;12.1;73.6
68873;BME280;55907;50.806;12.882;2023-06-14T00:43:07;972.6;;;12.0;75.1
68873;BME280;55907;50.806;12.882;2023-06-14T00:52:12;972.6;;;11.9;75.4
68873;BME280;55907;50.806;12.882;2023-06-14T00:55:13;972.6;;;11.9;74.4
68873;BME280;55907;50.806;12.882;2023-06-14T00:58:15;972.7;;;11.9;74.2
68873;BME280;55907;50.806;12.882;2023-06-14T01:01:16;972.6;;;11.9;75.0
68873;BME280;55907;50.806;12.882;2023-06-14T01:07:25;972.6;;;11.8;75.3
68873;BME280;55907;50.806;12.882;2023-06-14T01:10:29;972.6;;;11.8;74.1
68873;BME280;55907;50.806;12.882;2023-06-14T01:13:27;972.6;;;11.8;74.7
68873;BME280;55907;50.806;12.882;2023-06-14T01:16:24;972.6;;;11.7;76.0
68873;BME280;55907;50.806;12.882;2023-06-14T01:19:26;972.6;;;11.7;74.5
68873;BME280;55907;50.806;12.882;2023-06-14T01:22:27;972.6;;;11.6;75.4
68873;BME280;55907;50.806;12.882;2023-06-14T01:25:28;972.6;;;11.6;75.1
68873;BME280;55907;50.806;12.882;2023-06-14T01:28:31;972.5;;;11.6;75.9
68873;BME280;55907;50.806;12.882;2023-06-14T01:31:32;972.5;;;11.6;74.8
68873;BME280;55907;50.806;12.882;2023-06-14T01:34:33;972.5;;;11.6;76.4
68873;BME280;55907;50.806;12.882;2023-06-14T01:37:35;972.5;;;11.5;75.8
68873;BME280;55907;50.806;12.882;2023-06-14T01:43:38;972.5;;;11.5;76.0
68873;BME280;55907;50.806;12.882;2023-06-14T01:46:40;972.5;;;11.4;76.9
68873;BME280;55907;50.806;12.882;2023-06-14T01:49:41;972.5;;;11.4;77.0
68873;BME280;55907;50.806;12.882;2023-06-14T01:52:42;972.4;;;11.4;76.7
68873;BME280;55907;50.806;12.882;2023-06-14T01:55:44;972.4;;;11.4;77.2
68873;BME280;55907;50.806;12.882;2023-06-14T01:58:45;972.4;;;11.3;77.4
68873;BME280;55907;50.806;12.882;2023-06-14T02:01:47;972.5;;;11.3;77.7
68873;BME280;55907;50.806;12.882;2023-06-14T02:10:51;972.5;;;11.2;78.0
68873;BME280;55907;50.806;12.882;2023-06-14T02:13:53;972.5;;;11.2;79.2
68873;BME280;55907;50.806;12.882;2023-06-14T02:16:54;972.5;;;11.2;79.6
68873;BME280;55907;50.806;12.882;2023-06-14T02:19:56;972.5;;;11.2;79.4
68873;BME280;55907;50.806;12.882;2023-06-14T02:25:59;972.6;;;11.1;80.6
68873;BME280;55907;50.806;12.882;2023-06-14T02:29:00;972.6;;;11.1;80.5
68873;BME280;55907;50.806;12.882;2023-06-14T02:41:07;972.7;;;11.0;80.7
68873;BME280;55907;50.806;12.882;2023-06-14T02:44:09;972.6;;;10.9;82.0
68873;BME280;55907;50.806;12.882;2023-06-14T02:47:10;972.6;;;10.9;81.3
68873;BME280;55907;50.806;12.882;2023-06-14T02:50:11;972.7;;;10.9;81.8
68873;BME280;55907;50.806;12.882;2023-06-14T02:56:14;972.7;;;10.9;81.4
68873;BME280;55907;50.806;12.882;2023-06-14T02:59:16;972.7;;;10.9;81.4
68873;BME280;55907;50.806;12.882;2023-06-14T03:02:17;972.7;;;10.9;80.8
68873;BME280;55907;50.806;12.882;2023-06-14T03:05:19;972.7;;;10.9;80.1
68873;BME280;55907;50.806;12.882;2023-06-14T03:08:20;972.7;;;10.9;80.2
68873;BME280;55907;50.806;12.882;2023-06-14T03:11:22;972.8;;;11.0;80.9
68873;BME280;55907;50.806;12.882;2023-06-14T03:17:25;972.7;;;11.0;80.4
68873;BME280;55907;50.806;12.882;2023-06-14T03:20:27;972.8;;;11.0;77.7
68873;BME280;55907;50.806;12.882;2023-06-14T03:32:33;972.9;;;11.1;79.1
68873;BME280;55907;50.806;12.882;2023-06-14T03:35:35;972.9;;;11.1;78.8
68873;BME280;55907;50.806;12.882;2023-06-14T03:44:39;973.0;;;11.3;77.0
68873;BME280;55907;50.806;12.882;2023-06-14T03:47:40;973.0;;;11.3;77.1
68873;BME280;55907;50.806;12.882;2023-06-14T03:50:42;973.1;;;11.3;77.1
68873;BME280;55907;50.806;12.882;2023-06-14T03:53:43;973.1;;;11.4;77.5
68873;BME280;55907;50.806;12.882;2023-06-14T03:56:45;973.1;;;11.4;77.3
68873;BME280;55907;50.806;12.882;2023-06-14T03:59:47;973.2;;;11.5;78.6
68873;BME280;55907;50.806;12.882;2023-06-14T04:08:51;973.1;;;11.6;77.2
68873;BME280;55907;50.806;12.882;2023-06-14T04:11:53;973.1;;;11.7;76.9
68873;BME280;55907;50.806;12.882;2023-06-14T04:14:54;973.2;;;11.8;77.2
68873;BME280;55907;50.806;12.882;2023-06-14T04:17:56;973.2;;;11.9;76.3
68873;BME280;55907;50.806;12.882;2023-06-14T04:20:57;973.2;;;12.0;75.9
68873;BME280;55907;50.806;12.882;2023-06-14T04:33:03;973.3;;;15.2;63.8
68873;BME280;55907;50.806;12.882;2023-06-14T04:36:05;973.3;;;16.7;58.5
68873;BME280;55907;50.806;12.882;2023-06-14T04:39:06;973.3;;;18.2;55.1
68873;BME280;55907;50.806;12.882;2023-06-14T04:45:09;973.4;;;20.2;47.4
68873;BME280;55907;50.806;12.882;2023-06-14T05:03:18;973.4;;;23.8;38.0
68873;BME280;55907;50.806;12.882;2023-06-14T05:06:19;973.6;;;24.4;37.2
68873;BME280;55907;50.806;12.882;2023-06-14T05:09:20;973.6;;;24.8;36.4
68873;BME280;55907;50.806;12.882;2023-06-14T05:12:22;973.6;;;25.0;34.9
68873;BME280;55907;50.806;12.882;2023-06-14T05:21:26;973.6;;;24.6;36.9
68873;BME280;55907;50.806;12.882;2023-06-14T05:24:27;973.6;;;24.4;37.2
68873;BME280;55907;50.806;12.882;2023-06-14T05:27:29;973.7;;;24.5;37.1
68873;BME280;55907;50.806;12.882;2023-06-14T05:30:30;973.6;;;24.6;36.7
68873;BME280;55907;50.806;12.882;2023-06-14T05:33:31;973.6;;;24.9;36.7
68873;BME280;55907;50.806;12.882;2023-06-14T05:36:33;973.7;;;25.3;36.2
68873;BME280;55907;50.806;12.882;2023-06-14T05:39:34;973.8;;;25.4;35.5
68873;BME280;55907;50.806;12.882;2023-06-14T05:42:35;973.8;;;24.8;36.0
68873;BME280;55907;50.806;12.882;2023-06-14T05:45:37;973.8;;;24.3;37.6
68873;BME280;55907;50.806;12.882;2023-06-14T05:48:38;973.8;;;23.5;38.1
68873;BME280;55907;50.806;12.882;2023-06-14T05:51:40;973.8;;;22.4;40.9
68873;BME280;55907;50.806;12.882;2023-06-14T05:57:42;973.9;;;20.4;44.9
68873;BME280;55907;50.806;12.882;2023-06-14T06:00:44;973.9;;;19.7;46.6
68873;BME280;55907;50.806;12.882;2023-06-14T06:06:47;973.9;;;19.3;47.3
68873;BME280;55907;50.806;12.882;2023-06-14T06:09:48;973.8;;;19.2;48.6
68873;BME280;55907;50.806;12.882;2023-06-14T06:12:50;973.9;;;19.5;47.6
68873;BME280;55907;50.806;12.882;2023-06-14T06:15:51;973.9;;;19.8;47.1
68873;BME280;55907;50.806;12.882;2023-06-14T06:18:52;973.9;;;20.0;46.6
68873;BME280;55907;50.806;12.882;2023-06-14T06:21:54;973.9;;;19.9;47.2
68873;BME280;55907;50.806;12.882;2023-06-14T06:24:55;973.9;;;19.2;48.4
68873;BME280;55907;50.806;12.882;2023-06-14T06:27:57;974.0;;;18.8;48.7
68873;BME280;55907;50.806;12.882;2023-06-14T06:30:58;974.0;;;18.4;50.0
68873;BME280;55907;50.806;12.882;2023-06-14T06:34:00;974.0;;;18.0;52.1
68873;BME280;55907;50.806;12.882;2023-06-14T06:37:01;974.0;;;17.7;53.5
68873;BME280;55907;50.806;12.882;2023-06-14T06:40:03;974.0;;;17.4;55.2
68873;BME280;55907;50.806;12.882;2023-06-14T06:46:05;974.0;;;17.2;54.8
68873;BME280;55907;50.806;12.882;2023-06-14T06:49:07;974.1;;;17.2;55.6
68873;BME280;55907;50.806;12.882;2023-06-14T06:58:11;974.1;;;18.3;53.0
68873;BME280;55907;50.806;12.882;2023-06-14T07:01:12;974.1;;;18.8;52.4
68873;BME280;55907;50.806;12.882;2023-06-14T07:04:14;974.1;;;19.2;49.6
68873;BME280;55907;50.806;12.882;2023-06-14T07:07:15;974.2;;;19.5;48.8
68873;BME280;55907;50.806;12.882;2023-06-14T07:10:17;974.2;;;19.6;49.6
68873;BME280;55907;50.806;12.882;2023-06-14T07:16:20;974.3;;;19.5;48.8
68873;BME280;55907;50.806;12.882;2023-06-14T07:19:21;974.2;;;19.4;50.3
68873;BME280;55907;50.806;12.882;2023-06-14T07:22:22;974.3;;;19.2;51.6
68873;BME280;55907;50.806;12.882;2023-06-14T07:25:24;974.3;;;18.8;51.0
68873;BME280;55907;50.806;12.882;2023-06-14T07:28:25;974.3;;;18.3;53.5
68873;BME280;55907;50.806;12.882;2023-06-14T07:31:27;974.4;;;18.3;52.8
68873;BME280;55907;50.806;12.882;2023-06-14T07:34:28;974.4;;;18.3;53.5
68873;BME280;55907;50.806;12.882;2023-06-14T07:37:30;974.4;;;18.3;53.0
68873;BME280;55907;50.806;12.882;2023-06-14T07:40:31;974.5;;;18.2;54.1
68873;BME280;55907;50.806;12.882;2023-06-14T07:43:32;974.4;;;18.2;53.6
68873;BME280;55907;50.806;12.882;2023-06-14T07:46:34;974.4;;;18.1;53.9
68873;BME280;55907;50.806;12.882;2023-06-14T07:49:35;974.5;;;18.2;54.1
68873;BME280;55907;50.806;12.882;2023-06-14T07:52:37;974.4;;;18.2;54.8
68873;BME280;55907;50.806;12.882;2023-06-14T07:55:38;974.5;;;18.2;54.0
68873;BME280;55907;50.806;12.882;2023-06-14T07:58:40;974.5;;;18.2;54.2
68873;BME280;55907;50.806;12.882;2023-06-14T08:01:41;974.4;;;18.4;54.0
68873;BME280;55907;50.806;12.882;2023-06-14T08:04:42;974.4;;;18.6;53.6
68873;BME280;55907;50.806;12.882;2023-06-14T08:07:44;974.4;;;18.9;53.3
68873;BME280;55907;50.806;12.882;2023-06-14T08:10:45;974.4;;;18.8;51.4
68873;BME280;55907;50.806;12.882;2023-06-14T08:13:47;974.4;;;18.9;51.7
68873;BME280;55907;50.806;12.882;2023-06-14T08:16:48;974.4;;;19.2;51.9
68873;BME280;55907;50.806;12.882;2023-06-14T08:19:50;974.5;;;19.4;51.0
68873;BME280;55907;50.806;12.882;2023-06-14T08:22:51;974.4;;;19.7;48.8
68873;BME280;55907;50.806;12.882;2023-06-14T08:25:52;974.5;;;19.9;48.5
68873;BME280;55907;50.806;12.882;2023-06-14T08:28:54;974.4;;;19.9;48.7
68873;BME280;55907;50.806;12.882;2023-06-14T08:31:55;974.4;;;20.3;46.3
68873;BME280;55907;50.806;12.882;2023-06-14T08:34:57;974.3;;;20.9;45.6
68873;BME280;55907;50.806;12.882;2023-06-14T08:37:58;974.4;;;21.1;42.2
68873;BME280;55907;50.806;12.882;2023-06-14T08:44:01;974.5;;;21.5;39.7
68873;BME280;55907;50.806;12.882;2023-06-14T08:47:03;974.4;;;22.3;39.0
68873;BME280;55907;50.806;12.882;2023-06-14T08:50:05;974.5;;;22.9;37.9
68873;BME280;55907;50.806;12.882;2023-06-14T08:53:05;974.6;;;23.5;35.9
68873;BME280;55907;50.806;12.882;2023-06-14T08:56:06;974.5;;;24.3;34.8
68873;BME280;55907;50.806;12.882;2023-06-14T08:59:09;974.5;;;25.0;34.1
68873;BME280;55907;50.806;12.882;2023-06-14T09:02:09;974.5;;;26.3;31.5
68873;BME280;55907;50.806;12.882;2023-06-14T09:05:10;974.5;;;27.2;30.5
68873;BME280;55907;50.806;12.882;2023-06-14T09:08:12;974.6;;;27.0;29.2
68873;BME280;55907;50.806;12.882;2023-06-14T09:11:14;974.6;;;27.3;28.9
68873;BME280;55907;50.806;12.882;2023-06-14T09:14:14;974.5;;;27.7;28.7
68873;BME280;55907;50.806;12.882;2023-06-14T09:17:16;974.6;;;28.2;28.4
68873;BME280;55907;50.806;12.882;2023-06-14T09:20:17;974.7;;;28.3;27.8
68873;BME280;55907;50.806;12.882;2023-06-14T09:23:20;974.7;;;27.5;28.4
68873;BME280;55907;50.806;12.882;2023-06-14T09:26:20;974.6;;;27.0;29.4
68873;BME280;55907;50.806;12.882;2023-06-14T09:29:21;974.6;;;26.8;29.6
68873;BME280;55907;50.806;12.882;2023-06-14T09:32:23;974.7;;;25.9;31.5
68873;BME280;55907;50.806;12.882;2023-06-14T09:35:24;974.6;;;25.9;31.4
68873;BME280;55907;50.806;12.882;2023-06-14T09:38:25;974.6;;;26.7;32.7
68873;BME280;55907;50.806;12.882;2023-06-14T09:44:28;974.6;;;24.4;33.2
68873;BME280;55907;50.806;12.882;2023-06-14T09:47:29;974.6;;;23.9;34.6
68873;BME280;55907;50.806;12.882;2023-06-14T09:53:34;974.6;;;23.4;35.5
68873;BME280;55907;50.806;12.882;2023-06-14T09:56:36;974.6;;;23.4;36.2
68873;BME280;55907;50.806;12.882;2023-06-14T09:59:35;974.6;;;23.8;35.8
68873;BME280;55907;50.806;12.882;2023-06-14T10:02:37;974.6;;;23.9;35.7
68873;BME280;55907;50.806;12.882;2023-06-14T10:05:39;974.6;;;23.7;36.0
68873;BME280;55907;50.806;12.882;2023-06-14T10:08:40;974.6;;;23.8;35.6
68873;BME280;55907;50.806;12.882;2023-06-14T10:11:41;974.6;;;24.4;35.2
68873;BME280;55907;50.806;12.882;2023-06-14T10:17:47;974.6;;;24.6;34.2
68873;BME280;55907;50.806;12.882;2023-06-14T10:20:50;974.7;;;24.3;35.6
68873;BME280;55907;50.806;12.882;2023-06-14T10:23:47;974.7;;;23.7;35.4
68873;BME280;55907;50.806;12.882;2023-06-14T10:26:51;974.7;;;23.8;34.6
68873;BME280;55907;50.806;12.882;2023-06-14T10:30:02;974.6;;;23.7;35.1
68873;BME280;55907;50.806;12.882;2023-06-14T10:33:03;974.6;;;23.8;34.8
68873;BME280;55907;50.806;12.882;2023-06-14T10:36:09;974.6;;;23.9;35.2
68873;BME280;55907;50.806;12.882;2023-06-14T10:39:05;974.7;;;24.2;34.0
68873;BME280;55907;50.806;12.882;2023-06-14T10:41:55;974.6;;;24.2;33.5
68873;BME280;55907;50.806;12.882;2023-06-14T10:44:56;974.6;;;24.3;33.5
68873;BME280;55907;50.806;12.882;2023-06-14T10:47:57;974.6;;;24.5;34.8
68873;BME280;55907;50.806;12.882;2023-06-14T10:51:00;974.6;;;24.3;33.9
68873;BME280;55907;50.806;12.882;2023-06-14T10:54:00;974.5;;;24.0;36.1
68873;BME280;55907;50.806;12.882;2023-06-14T10:57:01;974.5;;;23.8;34.9
68873;BME280;55907;50.806;12.882;2023-06-14T11:00:05;974.5;;;23.2;35.7
68873;BME280;55907;50.806;12.882;2023-06-14T11:06:12;974.5;;;23.2;35.4
68873;BME280;55907;50.806;12.882;2023-06-14T11:09:24;974.5;;;23.4;35.4
68873;BME280;55907;50.806;12.882;2023-06-14T11:12:10;974.5;;;23.5;34.7
68873;BME280;55907;50.806;12.882;2023-06-14T11:15:10;974.4;;;23.8;34.7
68873;BME280;55907;50.806;12.882;2023-06-14T11:18:11;974.5;;;23.9;36.0
68873;BME280;55907;50.806;12.882;2023-06-14T11:21:15;974.5;;;23.8;35.8
68873;BME280;55907;50.806;12.882;2023-06-14T11:24:14;974.5;;;23.5;35.9
68873;BME280;55907;50.806;12.882;2023-06-14T11:27:15;974.4;;;23.3;36.4
68873;BME280;55907;50.806;12.882;2023-06-14T11:30:17;974.4;;;23.1;35.7
68873;BME280;55907;50.806;12.882;2023-06-14T11:33:18;974.4;;;23.2;34.8
68873;BME280;55907;50.806;12.882;2023-06-14T11:36:19;974.4;;;23.0;35.1
68873;BME280;55907;50.806;12.882;2023-06-14T11:39:24;974.4;;;23.3;35.9
68873;BME280;55907;50.806;12.882;2023-06-14T11:42:22;974.3;;;23.5;34.0
68873;BME280;55907;50.806;12.882;2023-06-14T11:45:24;974.4;;;23.6;33.9
68873;BME280;55907;50.806;12.882;2023-06-14T11:51:26;974.4;;;23.9;33.7
68873;BME280;55907;50.806;12.882;2023-06-14T11:54:28;974.3;;;24.1;34.2
68873;BME280;55907;50.806;12.882;2023-06-14T11:57:29;974.3;;;24.0;33.6
68873;BME280;55907;50.806;12.882;2023-06-14T12:03:32;974.3;;;23.1;34.3
68873;BME280;55907;50.806;12.882;2023-06-14T12:06:33;974.3;;;23.2;33.8
68873;BME280;55907;50.806;12.882;2023-06-14T12:09:35;974.3;;;23.4;34.3
68873;BME280;55907;50.806;12.882;2023-06-14T12:12:38;974.2;;;23.4;34.1
68873;BME280;55907;50.806;12.882;2023-06-14T12:15:37;974.2;;;23.2;34.5
68873;BME280;55907;50.806;12.882;2023-06-14T12:18:39;974.2;;;23.3;34.1
68873;BME280;55907;50.806;12.882;2023-06-14T12:21:40;974.2;;;23.5;32.9
68873;BME280;55907;50.806;12.882;2023-06-14T12:27:43;974.2;;;23.7;33.9
68873;BME280;55907;50.806;12.882;2023-06-14T12:30:44;974.2;;;23.7;32.7
68873;BME280;55907;50.806;12.882;2023-06-14T12:33:46;974.2;;;23.1;34.0
68873;BME280;55907;50.806;12.882;2023-06-14T12:36:47;974.1;;;22.5;35.4
68873;BME280;55907;50.806;12.882;2023-06-14T12:39:49;974.2;;;22.2;35.6
68873;BME280;55907;50.806;12.882;2023-06-14T12:42:50;974.2;;;21.9;36.2
68873;BME280;55907;50.806;12.882;2023-06-14T12:48:53;974.2;;;21.6;37.9
68873;BME280;55907;50.806;12.882;2023-06-14T12:51:54;974.2;;;21.6;38.1
68873;BME280;55907;50.806;12.882;2023-06-14T12:54:56;974.3;;;21.5;37.6
68873;BME280;55907;50.806;12.882;2023-06-14T12:57:57;974.3;;;21.3;37.8
68873;BME280;55907;50.806;12.882;2023-06-14T13:04:00;974.4;;;21.1;39.0
68873;BME280;55907;50.806;12.882;2023-06-14T13:07:01;974.3;;;21.5;38.8
68873;BME280;55907;50.806;12.882;2023-06-14T13:10:03;974.3;;;22.1;39.9
68873;BME280;55907;50.806;12.882;2023-06-14T13:13:04;974.3;;;22.9;38.0
68873;BME280;55907;50.806;12.882;2023-06-14T13:16:05;974.3;;;23.2;36.8
68873;BME280;55907;50.806;12.882;2023-06-14T13:31:12;974.4;;;23.8;35.0
68873;BME280;55907;50.806;12.882;2023-06-14T13:34:14;974.4;;;23.9;35.0
68873;BME280;55907;50.806;12.882;2023-06-14T13:40:17;974.3;;;23.9;34.3
68873;BME280;55907;50.806;12.882;2023-06-14T13:43:18;974.3;;;24.2;33.9
68873;BME280;55907;50.806;12.882;2023-06-14T13:46:19;974.3;;;23.8;33.9
68873;BME280;55907;50.806;12.882;2023-06-14T13:52:22;974.3;;;23.2;36.4
68873;BME280;55907;50.806;12.882;2023-06-14T13:55:23;974.3;;;23.7;36.6
68873;BME280;55907;50.806;12.882;2023-06-14T13:58:25;974.3;;;24.0;38.1
68873;BME280;55907;50.806;12.882;2023-06-14T14:04:27;974.3;;;23.2;38.8
68873;BME280;55907;50.806;12.882;2023-06-14T14:07:29;974.3;;;23.3;38.7
68873;BME280;55907;50.806;12.882;2023-06-14T14:13:32;974.4;;;22.6;40.7
68873;BME280;55907;50.806;12.882;2023-06-14T14:16:33;974.3;;;22.4;40.9
68873;BME280;55907;50.806;12.882;2023-06-14T14:19:34;974.4;;;22.4;41.3
68873;BME280;55907;50.806;12.882;2023-06-14T14:22:36;974.4;;;22.4;40.1
68873;BME280;55907;50.806;12.882;2023-06-14T14:25:37;974.4;;;22.4;40.0
68873;BME280;55907;50.806;12.882;2023-06-14T14:28:38;974.4;;;22.6;41.0
68873;BME280;55907;50.806;12.882;2023-06-14T14:31:40;974.4;;;22.6;40.3
68873;BME280;55907;50.806;12.882;2023-06-14T14:34:41;974.4;;;22.2;40.5
68873;BME280;55907;50.806;12.882;2023-06-14T14:37:43;974.4;;;22.0;39.9
68873;BME280;55907;50.806;12.882;2023-06-14T14:40:44;974.4;;;22.2;40.4
68873;BME280;55907;50.806;12.882;2023-06-14T14:43:45;974.4;;;22.5;40.1
68873;BME280;55907;50.806;12.882;2023-06-14T14:46:47;974.4;;;22.7;39.6
68873;BME280;55907;50.806;12.882;2023-06-14T14:49:48;974.4;;;22.8;39.7
68873;BME280;55907;50.806;12.882;2023-06-14T14:52:49;974.4;;;22.8;39.8
68873;BME280;55907;50.806;12.882;2023-06-14T14:55:51;974.3;;;22.8;39.3
68873;BME280;55907;50.806;12.882;2023-06-14T14:58:52;974.3;;;22.6;40.2
68873;BME280;55907;50.806;12.882;2023-06-14T15:04:55;974.3;;;21.6;42.9
68873;BME280;55907;50.806;12.882;2023-06-14T15:07:56;974.4;;;21.3;43.8
68873;BME280;55907;50.806;12.882;2023-06-14T15:10:58;974.3;;;21.4;44.2
68873;BME280;55907;50.806;12.882;2023-06-14T15:13:59;974.3;;;21.5;44.7
68873;BME280;55907;50.806;12.882;2023-06-14T15:17:01;974.3;;;21.5;44.5
68873;BME280;55907;50.806;12.882;2023-06-14T15:20:02;974.4;;;21.6;44.2
68873;BME280;55907;50.806;12.882;2023-06-14T15:23:03;974.4;;;21.5;43.0
68873;BME280;55907;50.806;12.882;2023-06-14T15:26:05;974.4;;;21.1;43.4
68873;BME280;55907;50.806;12.882;2023-06-14T15:38:10;974.3;;;21.2;44.5
68873;BME280;55907;50.806;12.882;2023-06-14T15:44:13;974.3;;;21.2;44.2
68873;BME280;55907;50.806;12.882;2023-06-14T15:50:16;974.3;;;21.5;44.7
68873;BME280;55907;50.806;12.882;2023-06-14T15:53:18;974.3;;;21.3;45.0
68873;BME280;55907;50.806;12.882;2023-06-14T15:56:19;974.2;;;21.4;45.7
68873;BME280;55907;50.806;12.882;2023-06-14T16:02:21;974.2;;;21.7;45.6
68873;BME280;55907;50.806;12.882;2023-06-14T16:05:23;974.2;;;21.6;44.5
68873;BME280;55907;50.806;12.882;2023-06-14T16:08:24;974.2;;;21.6;44.6
68873;BME280;55907;50.806;12.882;2023-06-14T16:14:27;974.1;;;21.9;42.8
68873;BME280;55907;50.806;12.882;2023-06-14T16:17:28;974.1;;;21.9;41.2
68873;BME280;55907;50.806;12.882;2023-06-14T16:20:30;974.1;;;22.0;41.0
68873;BME280;55907;50.806;12.882;2023-06-14T16:23:32;974.2;;;21.9;42.0
68873;BME280;55907;50.806;12.882;2023-06-14T16:26:33;974.2;;;21.9;42.2
68873;BME280;55907;50.806;12.882;2023-06-14T16:29:35;974.1;;;22.0;42.3
68873;BME280;55907;50.806;12.882;2023-06-14T16:32:35;974.1;;;22.0;42.9
68873;BME280;55907;50.806;12.882;2023-06-14T16:38:38;974.1;;;22.1;43.0
68873;BME280;55907;50.806;12.882;2023-06-14T16:41:40;974.1;;;22.0;42.4
68873;BME280;55907;50.806;12.882;2023-06-14T16:47:42;974.1;;;21.8;43.4
68873;BME280;55907;50.806;12.882;2023-06-14T16:50:44;974.2;;;21.7;43.6
68873;BME280;55907;50.806;12.882;2023-06-14T16:53:45;974.2;;;21.7;43.7
68873;BME280;55907;50.806;12.882;2023-06-14T16:56:47;974.2;;;21.7;41.9
68873;BME280;55907;50.806;12.882;2023-06-14T16:59:48;974.2;;;21.6;41.7
68873;BME280;55907;50.806;12.882;2023-06-14T17:02:49;974.2;;;21.6;42.4
68873;BME280;55907;50.806;12.882;2023-06-14T17:05:55;974.2;;;21.7;41.9
68873;BME280;55907;50.806;12.882;2023-06-14T17:08:52;974.2;;;21.9;41.9
68873;BME280;55907;50.806;12.882;2023-06-14T17:11:53;974.3;;;21.7;42.8
68873;BME280;55907;50.806;12.882;2023-06-14T17:14:55;974.3;;;21.6;42.9
68873;BME280;55907;50.806;12.882;2023-06-14T17:17:56;974.3;;;21.5;43.6
68873;BME280;55907;50.806;12.882;2023-06-14T17:20:58;974.4;;;21.3;44.1
68873;BME280;55907;50.806;12.882;2023-06-14T17:23:59;974.4;;;21.0;45.0
68873;BME280;55907;50.806;12.882;2023-06-14T17:27:00;974.4;;;20.8;45.9
68873;BME280;55907;50.806;12.882;2023-06-14T17:30:02;974.5;;;20.4;46.6
68873;BME280;55907;50.806;12.882;2023-06-14T17:33:07;974.5;;;20.2;47.0
68873;BME280;55907;50.806;12.882;2023-06-14T17:39:06;974.5;;;19.9;46.9
68873;BME280;55907;50.806;12.882;2023-06-14T17:42:07;974.5;;;19.7;47.0
68873;BME280;55907;50.806;12.882;2023-06-14T17:45:09;974.6;;;19.6;47.9
68873;BME280;55907;50.806;12.882;2023-06-14T17:48:10;974.5;;;19.5;48.6
68873;BME280;55907;50.806;12.882;2023-06-14T17:57:15;974.5;;;19.2;49.6
68873;BME280;55907;50.806;12.882;2023-06-14T18:00:17;974.6;;;19.2;49.7
68873;BME280;55907;50.806;12.882;2023-06-14T18:03:18;974.6;;;19.3;50.2
68873;BME280;55907;50.806;12.882;2023-06-14T18:06:19;974.6;;;19.3;49.6
68873;BME280;55907;50.806;12.882;2023-06-14T18:09:21;974.6;;;19.3;50.2
68873;BME280;55907;50.806;12.882;2023-06-14T18:12:22;974.6;;;19.4;49.7
68873;BME280;55907;50.806;12.882;2023-06-14T18:15:23;974.6;;;19.4;49.6
68873;BME280;55907;50.806;12.882;2023-06-14T18:18:24;974.7;;;19.4;49.2
68873;BME280;55907;50.806;12.882;2023-06-14T18:24:27;974.7;;;19.3;49.4
68873;BME280;55907;50.806;12.882;2023-06-14T18:27:29;974.7;;;19.2;50.2
68873;BME280;55907;50.806;12.882;2023-06-14T18:30:30;974.7;;;19.2;49.7
68873;BME280;55907;50.806;12.882;2023-06-14T18:33:32;974.7;;;19.2;50.6
68873;BME280;55907;50.806;12.882;2023-06-14T18:39:34;974.8;;;18.9;51.1
68873;BME280;55907;50.806;12.882;2023-06-14T18:48:39;974.7;;;18.6;49.9
68873;BME280;55907;50.806;12.882;2023-06-14T18:51:40;974.7;;;18.5;49.4
68873;BME280;55907;50.806;12.882;2023-06-14T18:54:42;974.7;;;18.5;49.6
68873;BME280;55907;50.806;12.882;2023-06-14T18:57:43;974.7;;;18.4;50.2
68873;BME280;55907;50.806;12.882;2023-06-14T19:00:45;974.8;;;18.4;50.0
68873;BME280;55907;50.806;12.882;2023-06-14T19:03:46;974.8;;;18.3;49.8
68873;BME280;55907;50.806;12.882;2023-06-14T19:09:49;974.9;;;18.2;50.5
68873;BME280;55907;50.806;12.882;2023-06-14T19:12:50;974.9;;;18.1;51.2
68873;BME280;55907;50.806;12.882;2023-06-14T19:15:52;974.9;;;18.0;52.5
68873;BME280;55907;50.806;12.882;2023-06-14T19:18:53;974.9;;;17.9;53.4
68873;BME280;55907;50.806;12.882;2023-06-14T19:21:54;974.9;;;17.9;53.4
68873;BME280;55907;50.806;12.882;2023-06-14T19:24:56;975.0;;;17.8;53.8
68873;BME280;55907;50.806;12.882;2023-06-14T19:27:57;975.0;;;17.7;53.9
68873;BME280;55907;50.806;12.882;2023-06-14T19:30:59;975.0;;;17.7;54.6
68873;BME280;55907;50.806;12.882;2023-06-14T19:34:00;975.0;;;17.6;55.4
68873;BME280;55907;50.806;12.882;2023-06-14T19:37:02;975.1;;;17.5;55.5
68873;BME280;55907;50.806;12.882;2023-06-14T19:43:05;975.2;;;17.4;56.5
68873;BME280;55907;50.806;12.882;2023-06-14T19:46:06;975.2;;;17.3;57.2
68873;BME280;55907;50.806;12.882;2023-06-14T19:49:07;975.2;;;17.2;58.0
68873;BME280;55907;50.806;12.882;2023-06-14T19:52:09;975.2;;;17.2;58.5
68873;BME280;55907;50.806;12.882;2023-06-14T19:55:10;975.2;;;17.1;59.0
68873;BME280;55907;50.806;12.882;2023-06-14T19:58:12;975.3;;;17.0;59.2
68873;BME280;55907;50.806;12.882;2023-06-14T20:10:18;975.3;;;16.8;60.6
68873;BME280;55907;50.806;12.882;2023-06-14T20:13:19;975.3;;;16.7;60.3
68873;BME280;55907;50.806;12.882;2023-06-14T20:16:20;975.3;;;16.7;61.1
68873;BME280;55907;50.806;12.882;2023-06-14T20:28:26;975.3;;;16.3;62.3
68873;BME280;55907;50.806;12.882;2023-06-14T20:31:28;975.3;;;16.3;61.4
68873;BME280;55907;50.806;12.882;2023-06-14T20:34:29;975.3;;;16.2;61.2
68873;BME280;55907;50.806;12.882;2023-06-14T20:37:31;975.3;;;16.1;62.1
68873;BME280;55907;50.806;12.882;2023-06-14T20:40:32;975.3;;;16.0;62.6
68873;BME280;55907;50.806;12.882;2023-06-14T20:49:36;975.3;;;15.9;64.0
68873;BME280;55907;50.806;12.882;2023-06-14T20:52:38;975.3;;;15.8;63.3
68873;BME280;55907;50.806;12.882;2023-06-14T20:55:39;975.3;;;15.8;65.2
68873;BME280;55907;50.806;12.882;2023-06-14T20:58:41;975.3;;;15.7;64.2
68873;BME280;55907;50.806;12.882;2023-06-14T21:01:42;975.2;;;15.7;64.9
68873;BME280;55907;50.806;12.882;2023-06-14T21:07:45;975.3;;;15.6;64.4